Hondarribia Gipuzkoa

latitud = 43° 21' 38''N | longitud = 001° 47' 14''W
4 metros sobre el nivel del mar | datos mensuales

Fecha, hora, temperatura, viento dirección y velocidad, humedad y presión.

  • 21-01-2018 02:00:00 | 13.20°C | Oeste |12.00 km/h | 96.00% | 1024.70 hPa
  • 21-01-2018 01:00:00 | 13.20°C | Oeste |16.00 km/h | 94.00% | 1024.50 hPa
  • 21-01-2018 00:00:00 | 13.20°C | Oeste |18.00 km/h | 94.00% | 1024.20 hPa
  • 20-01-2018 23:00:00 | 13.50°C | Oeste |22.00 km/h | 91.00% | 1023.80 hPa
  • 20-01-2018 22:00:00 | 13.90°C | Oeste |15.00 km/h | 88.00% | 1023.50 hPa
  • 20-01-2018 21:00:00 | 13.70°C | Oeste |12.00 km/h | 90.00% | 1023.40 hPa
  • 20-01-2018 20:00:00 | 14.20°C | Noroeste |9.00 km/h | 84.00% | 1023.10 hPa
  • 20-01-2018 19:00:00 | 14.50°C | Oeste |9.00 km/h | 81.00% | 1022.30 hPa
  • 20-01-2018 18:00:00 | 14.60°C | Oeste |10.00 km/h | 80.00% | 1021.60 hPa
  • 20-01-2018 17:00:00 | 14.30°C | Sudoeste |21.00 km/h | 79.00% | 1021.00 hPa
  • 20-01-2018 16:00:00 | 12.80°C | Sudoeste |13.00 km/h | 91.00% | 1020.80 hPa
  • 20-01-2018 15:00:00 | 13.50°C | Sudoeste |27.00 km/h | 83.00% | 1020.30 hPa
  • 20-01-2018 14:00:00 | 14.60°C | Sudoeste |26.00 km/h | 71.00% | 1020.70 hPa
  • 20-01-2018 13:00:00 | 15.10°C | Oeste |24.00 km/h | 58.00% | 1021.20 hPa
  • 20-01-2018 12:00:00 | 13.20°C | Sudoeste |22.00 km/h | 59.00% | 1021.40 hPa
  • 20-01-2018 11:00:00 | 13.00°C | Sudoeste |26.00 km/h | 59.00% | 1021.70 hPa
  • 20-01-2018 10:00:00 | 12.50°C | Sudoeste |19.00 km/h | 61.00% | 1021.50 hPa
  • 20-01-2018 09:00:00 | 11.80°C | Sudoeste |18.00 km/h | 66.00% | 1021.40 hPa
  • 20-01-2018 08:00:00 | 11.10°C | Sudoeste |17.00 km/h | 73.00% | 1020.80 hPa
  • 20-01-2018 07:00:00 | 10.90°C | Sudoeste |9.00 km/h | 73.00% | 1021.60 hPa
  • 20-01-2018 06:00:00 | 10.70°C | Sudoeste |9.00 km/h | 76.00% | 1021.90 hPa
  • 20-01-2018 05:00:00 | 10.30°C | Sudoeste |10.00 km/h | 82.00% | 1022.40 hPa
  • 20-01-2018 04:00:00 | 10.40°C | Sudoeste |11.00 km/h | 85.00% | 1023.30 hPa
  • 20-01-2018 03:00:00 | 10.80°C | Sudoeste |9.00 km/h | 84.00% | 1024.60 hPa